ウィニペグ の空港の天気 - METARとTAF

ウィニペグ国際空港 ( CYWG / YWG ) - カナダ マニトバ州ウィニペグ
飛行場実況気象(Metar)
観測時間03/04 09:00 CST (03/04 15:00 UTC)
風向・風速南東 3m/s
視程10km以上
天気現象
なし
気温-2℃
湿度69%
気圧1025.8hPa
METARCYWG 041500Z 14006KT 15SM SKC M02/M07 A3025 RMK SLP258
過去の天気等 Google飛行場航空写真 Wunderground天気予報

過去48時間のMETAR

飛行場予報(TAF)
発表時間: 3/04 05:50 CST (3/04 11:50 UTC)
予報対象時間: 4日6時 CST ~ 5日6時 CST
風向・風速南南東 4m/s
視程10km以上
なし
4日13時 CST から
風向・風速南南東 4m/s
視程10km以上
少しの雲 雲底高度 460m
4日15時 CST ~ 4日19時 CST に一時的に
全天の8割程度の雲 雲底高度 460m
4日15時 CST ~ 4日17時 CST に徐々に
風向・風速東南東 3m/s
4日19時 CST から
風向・風速東 3m/s
視程10km以上
少しの雲 雲底高度 760m
4日20時 CST ~ 4日22時 CST に徐々に
風向・風速北東 3m/s
全天の8割程度の雲 雲底高度 760m
4日23時 CST から
風向・風速北東 3m/s
視程10km以上
全天の8割程度の雲 雲底高度 760m
TAF CYWG 041150Z 0412/0512 15008KT P6SM SKC
FM041900 15008KT P6SM FEW015
TEMPO 0421/0501 BKN015
BECMG 0421/0423 12005KT
FM050100 09005KT P6SM FEW025
BECMG 0502/0504 05005KT BKN025
FM050500 05005KT P6SM BKN025 RMK NXT FCST BY 041800Z